createdAt,value
2019-02-26T00:00:33.532Z,20.40
2019-02-26T00:03:06.971Z,22.13
2019-02-26T00:05:40.389Z,22.37
2019-02-26T00:08:17.019Z,18.33
2019-02-26T00:10:50.214Z,17.10
2019-02-26T00:13:25.001Z,21.23
2019-02-26T00:16:03.150Z,19.97
2019-02-26T00:18:34.370Z,16.93
2019-02-26T00:21:07.868Z,20.47
2019-02-26T00:23:42.033Z,18.23
2019-02-26T00:26:17.771Z,16.77
2019-02-26T00:28:51.685Z,18.40
2019-02-26T00:31:26.156Z,19.50
2019-02-26T00:34:00.249Z,15.33
2019-02-26T00:36:35.904Z,18.47
2019-02-26T00:39:08.912Z,17.80
2019-02-26T00:41:42.333Z,19.10
2019-02-26T00:44:15.763Z,20.63
2019-02-26T00:46:49.188Z,22.23
2019-02-26T00:49:23.690Z,24.40
2019-02-26T00:51:57.765Z,16.97
2019-02-26T00:54:31.869Z,16.80
2019-02-26T00:57:08.621Z,19.13
2019-02-26T00:59:43.601Z,22.47
2019-02-26T01:02:16.633Z,18.63
2019-02-26T01:04:50.982Z,17.37
2019-02-26T01:07:26.045Z,23.47
2019-02-26T01:09:59.926Z,20.53
2019-02-26T01:12:35.257Z,21.73
2019-02-26T01:15:13.505Z,18.97
2019-02-26T01:17:46.728Z,18.47
2019-02-26T01:20:24.637Z,16.97
2019-02-26T01:22:55.313Z,17.83
2019-02-26T01:25:28.754Z,19.73
2019-02-26T01:28:02.181Z,19.27
2019-02-26T01:30:36.197Z,16.43
2019-02-26T01:33:10.012Z,15.93
2019-02-26T01:35:43.447Z,19.03
2019-02-26T01:38:18.697Z,24.33
2019-02-26T01:40:53.767Z,19.20
2019-02-26T01:43:27.164Z,18.17
2019-02-26T01:46:00.596Z,21.53
2019-02-26T01:48:36.558Z,19.43
2019-02-26T01:51:10.017Z,16.80
2019-02-26T01:53:46.380Z,17.27
2019-02-26T01:56:19.941Z,19.57
2019-02-26T01:58:56.649Z,14.07
2019-02-26T02:01:28.892Z,14.17
2019-02-26T02:04:02.305Z,12.73
2019-02-26T02:06:37.017Z,15.30
2019-02-26T02:09:13.239Z,15.40
2019-02-26T02:11:46.034Z,12.67
2019-02-26T02:14:19.520Z,13.80
2019-02-26T02:16:52.954Z,12.73
2019-02-26T02:19:27.607Z,14.23
2019-02-26T02:22:01.537Z,12.27
2019-02-26T02:24:38.979Z,13.40
2019-02-26T02:27:10.113Z,14.07
2019-02-26T02:29:44.161Z,11.03
2019-02-26T02:32:20.907Z,12.10
2019-02-26T02:34:58.322Z,13.03
2019-02-26T02:37:30.013Z,15.63
2019-02-26T02:40:06.870Z,18.23
2019-02-26T02:42:42.933Z,18.17
2019-02-26T02:45:20.171Z,14.23
2019-02-26T02:47:54.768Z,18.30
2019-02-26T02:50:25.832Z,17.30
2019-02-26T02:53:01.444Z,20.77
2019-02-26T02:55:34.416Z,15.73
2019-02-26T02:58:07.841Z,15.63
2019-02-26T03:00:41.327Z,14.33
2019-02-26T03:03:14.759Z,17.23
2019-02-26T03:05:48.187Z,13.17
2019-02-26T03:08:22.337Z,12.83
2019-02-26T03:10:56.338Z,14.73
2019-02-26T03:13:29.776Z,13.73
2019-02-26T03:16:03.213Z,13.97
2019-02-26T03:18:36.646Z,12.90
2019-02-26T03:21:10.074Z,14.53
2019-02-26T03:23:45.492Z,16.17
2019-02-26T03:26:20.551Z,12.77
2019-02-26T03:28:53.892Z,15.30
2019-02-26T03:31:33.847Z,14.73
2019-02-26T03:34:08.725Z,14.90
2019-02-26T03:36:40.184Z,16.80
2019-02-26T03:39:12.779Z,14.47
2019-02-26T03:41:48.663Z,12.20
2019-02-26T03:44:23.100Z,17.50
2019-02-26T03:46:56.521Z,16.10
2019-02-26T03:49:29.976Z,16.43
2019-02-26T03:52:03.411Z,14.80
2019-02-26T03:54:39.828Z,14.23
2019-02-26T03:57:14.197Z,14.13
2019-02-26T03:59:47.559Z,15.53
2019-02-26T04:02:23.413Z,18.70
2019-02-26T04:04:57.922Z,12.80
2019-02-26T04:07:33.353Z,13.97
2019-02-26T04:10:08.133Z,14.20
2019-02-26T04:12:42.350Z,15.33
2019-02-26T04:15:19.016Z,20.93
2019-02-26T04:17:52.439Z,15.50
2019-02-26T04:20:27.833Z,20.43
2019-02-26T04:23:01.012Z,14.50
2019-02-26T04:25:37.516Z,16.53
2019-02-26T04:28:44.513Z,16.13
2019-02-26T04:31:36.530Z,17.47
2019-02-26T04:34:15.649Z,17.93
2019-02-26T04:37:10.391Z,17.73
2019-02-26T04:39:47.693Z,15.47
2019-02-26T04:42:32.521Z,18.97
2019-02-26T04:45:20.261Z,17.87
2019-02-26T04:47:58.321Z,14.83
2019-02-26T04:50:35.331Z,16.83
2019-02-26T04:53:10.537Z,14.80
2019-02-26T04:55:44.714Z,14.67
2019-02-26T04:58:20.139Z,15.57
2019-02-26T05:00:52.787Z,12.70
2019-02-26T05:03:26.225Z,14.80
2019-02-26T05:06:02.081Z,17.03
2019-02-26T05:08:37.120Z,16.13
2019-02-26T05:11:14.850Z,13.67
2019-02-26T05:13:45.116Z,15.80
2019-02-26T05:16:18.539Z,18.93
2019-02-26T05:18:54.904Z,17.17
2019-02-26T05:21:29.819Z,18.87
2019-02-26T05:24:03.090Z,19.07
2019-02-26T05:26:36.790Z,15.80
2019-02-26T05:29:11.985Z,15.60
2019-02-26T05:31:45.400Z,17.67
2019-02-26T05:34:20.739Z,14.30
2019-02-26T05:36:53.986Z,17.00
2019-02-26T05:39:28.836Z,17.97
2019-02-26T05:42:04.074Z,15.27
2019-02-26T05:44:37.568Z,15.20
2019-02-26T05:47:13.011Z,16.23
2019-02-26T05:49:46.182Z,16.97
2019-02-26T05:52:21.437Z,15.37
2019-02-26T05:54:54.789Z,18.60
2019-02-26T05:57:32.636Z,15.90
2019-02-26T06:00:05.268Z,22.63
2019-02-26T06:02:40.111Z,14.20
2019-02-26T06:05:14.343Z,17.53
2019-02-26T06:07:49.037Z,22.83
2019-02-26T06:10:24.592Z,20.03
2019-02-26T06:12:57.630Z,17.77
2019-02-26T06:15:31.526Z,18.97
2019-02-26T06:18:06.194Z,22.60
2019-02-26T06:20:39.622Z,21.47
2019-02-26T06:23:13.053Z,20.97
2019-02-26T06:25:46.495Z,19.47
2019-02-26T06:28:20.512Z,22.43
2019-02-26T06:30:55.101Z,27.40
2019-02-26T06:33:31.823Z,17.37
2019-02-26T06:36:04.742Z,19.97
2019-02-26T06:38:39.168Z,19.93
2019-02-26T06:41:12.957Z,23.30
2019-02-26T06:43:48.529Z,20.50
2019-02-26T06:46:21.577Z,26.50
2019-02-26T06:48:55.024Z,21.73
2019-02-26T06:51:30.612Z,27.87
2019-02-26T06:54:03.624Z,33.47
2019-02-26T06:56:41.395Z,30.43
2019-02-26T06:59:12.366Z,41.43
2019-02-26T07:01:45.917Z,30.17
2019-02-26T07:04:19.723Z,30.20
2019-02-26T07:06:55.218Z,22.83
2019-02-26T07:09:28.316Z,29.43
2019-02-26T07:12:01.748Z,23.13
2019-02-26T07:14:35.186Z,30.67
2019-02-26T07:17:08.622Z,35.77
2019-02-26T07:19:42.074Z,33.97
2019-02-26T07:22:16.050Z,32.13
2019-02-26T07:24:51.960Z,45.07
2019-02-26T07:27:26.498Z,32.20
2019-02-26T07:30:00.999Z,29.27
2019-02-26T07:32:36.066Z,38.03
2019-02-26T07:35:11.636Z,27.80
2019-02-26T07:37:45.560Z,33.23
2019-02-26T07:40:18.997Z,27.83
2019-02-26T07:42:52.444Z,30.40
2019-02-26T07:45:27.443Z,27.60
2019-02-26T07:48:01.160Z,27.77
2019-02-26T07:50:37.770Z,39.67
2019-02-26T07:53:09.857Z,53.17
2019-02-26T07:55:43.289Z,37.70
2019-02-26T07:58:17.925Z,32.40
2019-02-26T08:00:52.261Z,32.87
2019-02-26T08:03:26.896Z,25.03
2019-02-26T08:06:04.783Z,31.67
2019-02-26T08:08:37.524Z,32.37
2019-02-26T08:11:11.586Z,26.37
2019-02-26T08:13:45.020Z,32.20
2019-02-26T08:16:20.557Z,32.20
2019-02-26T08:18:54.117Z,31.53
2019-02-26T08:21:29.684Z,28.27
2019-02-26T08:24:03.500Z,35.23
2019-02-26T08:26:38.631Z,39.13
2019-02-26T08:29:12.530Z,25.47
2019-02-26T08:31:47.454Z,24.50
2019-02-26T08:34:21.349Z,31.63
2019-02-26T08:36:54.788Z,29.37
2019-02-26T08:39:28.242Z,33.63
2019-02-26T08:42:09.722Z,37.30
2019-02-26T08:44:46.227Z,29.90
2019-02-26T08:47:20.616Z,30.30
2019-02-26T08:49:53.477Z,25.67
2019-02-26T08:52:29.282Z,27.27
2019-02-26T08:55:02.070Z,34.47
2019-02-26T08:57:35.498Z,22.07
2019-02-26T09:00:21.865Z,26.00
2019-02-26T09:02:56.726Z,27.43
2019-02-26T09:05:33.865Z,22.60
2019-02-26T09:08:07.923Z,26.17
2019-02-26T09:10:41.768Z,34.00
2019-02-26T09:13:16.464Z,35.03
2019-02-26T09:15:51.191Z,25.30
2019-02-26T09:18:27.806Z,32.00
2019-02-26T09:20:59.793Z,24.40
2019-02-26T09:23:33.228Z,32.90
2019-02-26T09:26:07.126Z,27.03
2019-02-26T09:28:40.736Z,24.90
2019-02-26T09:31:14.287Z,28.77
2019-02-26T09:33:47.805Z,22.67
2019-02-26T09:36:23.646Z,26.43
2019-02-26T09:38:56.440Z,28.90
2019-02-26T09:41:29.860Z,28.17
2019-02-26T09:44:04.973Z,20.60
2019-02-26T09:46:39.375Z,27.00
2019-02-26T09:49:13.712Z,20.50
2019-02-26T09:51:47.160Z,21.53
2019-02-26T09:54:22.541Z,15.90
2019-02-26T09:56:55.752Z,24.33
2019-02-26T09:59:31.336Z,19.03
2019-02-26T10:02:06.091Z,18.00
2019-02-26T10:04:39.730Z,19.80
2019-02-26T10:07:14.369Z,17.27
2019-02-26T10:09:48.538Z,18.13
2019-02-26T10:12:22.080Z,19.00
2019-02-26T10:14:59.480Z,19.47
2019-02-26T10:17:32.636Z,24.67
2019-02-26T10:20:09.492Z,21.10
2019-02-26T10:22:43.277Z,16.70
2019-02-26T10:25:16.792Z,16.10
2019-02-26T10:27:50.285Z,17.97
2019-02-26T10:30:23.811Z,26.47
2019-02-26T10:33:10.800Z,30.30
2019-02-26T10:35:45.557Z,30.43
2019-02-26T10:38:19.414Z,44.57
2019-02-26T10:40:56.200Z,37.30
2019-02-26T10:43:28.016Z,33.03
2019-02-26T10:46:01.484Z,27.90
2019-02-26T10:48:34.912Z,24.70
2019-02-26T10:51:08.363Z,34.77
2019-02-26T10:53:41.784Z,31.93
2019-02-26T10:56:15.227Z,23.33
2019-02-26T10:58:48.652Z,21.57
2019-02-26T11:01:23.634Z,19.47
2019-02-26T11:03:57.253Z,22.70
2019-02-26T11:06:33.148Z,16.40
2019-02-26T11:09:08.924Z,25.60
2019-02-26T11:11:42.432Z,35.80
2019-02-26T11:14:17.390Z,26.73
2019-02-26T11:16:51.029Z,25.90
2019-02-26T11:19:25.338Z,31.13
2019-02-26T11:22:00.803Z,23.30
2019-02-26T11:24:36.176Z,26.50
2019-02-26T11:27:10.052Z,21.43
2019-02-26T11:29:43.923Z,20.50
2019-02-26T11:32:17.362Z,29.73
2019-02-26T11:34:52.647Z,18.17
2019-02-26T11:37:27.250Z,18.17
2019-02-26T11:40:02.864Z,17.07
2019-02-26T11:42:36.286Z,18.90
2019-02-26T11:45:17.485Z,16.27
2019-02-26T11:47:50.810Z,17.63
2019-02-26T11:50:28.007Z,22.50
2019-02-26T11:53:01.007Z,16.37
2019-02-26T11:55:37.299Z,16.13
2019-02-26T11:58:10.819Z,19.87
2019-02-26T12:00:50.545Z,14.57
2019-02-26T12:03:27.186Z,13.77
2019-02-26T12:06:01.900Z,19.83
2019-02-26T12:08:34.566Z,13.20
2019-02-26T12:11:12.572Z,20.67
2019-02-26T12:13:44.711Z,22.30
2019-02-26T12:16:18.513Z,15.13
2019-02-26T12:18:51.957Z,15.17
2019-02-26T12:21:27.564Z,17.23
2019-02-26T12:24:01.593Z,13.37
2019-02-26T12:26:35.714Z,19.33
2019-02-26T12:29:09.153Z,15.93
2019-02-26T12:31:42.592Z,13.87
2019-02-26T12:34:17.607Z,11.97
2019-02-26T12:36:53.338Z,12.70
2019-02-26T12:39:29.146Z,11.63
2019-02-26T12:42:01.501Z,10.13
2019-02-26T12:44:37.992Z,8.60
2019-02-26T12:47:11.991Z,8.73
2019-02-26T12:49:45.287Z,5.37
2019-02-26T12:52:21.229Z,6.43
2019-02-26T12:54:55.010Z,6.47
2019-02-26T12:57:31.541Z,6.33
2019-02-26T13:00:16.662Z,6.93
2019-02-26T13:02:52.297Z,6.40
2019-02-26T13:05:26.168Z,6.20
2019-02-26T13:07:59.602Z,8.27
2019-02-26T13:10:33.038Z,6.63
2019-02-26T13:13:07.499Z,5.77
2019-02-26T13:15:41.776Z,5.43
2019-02-26T13:18:15.198Z,3.77
2019-02-26T13:20:52.131Z,5.70
2019-02-26T13:23:23.781Z,4.33
2019-02-26T13:25:57.244Z,8.57
2019-02-26T13:28:30.658Z,5.03
2019-02-26T13:31:04.967Z,5.13
2019-02-26T13:33:42.137Z,4.50
2019-02-26T13:36:16.326Z,4.83
2019-02-26T13:38:49.971Z,8.67
2019-02-26T13:43:58.610Z,3.30
2019-02-26T13:46:32.048Z,4.03
2019-02-26T13:49:05.712Z,4.30
2019-02-26T13:51:39.149Z,3.20
2019-02-26T13:54:12.577Z,4.07
2019-02-26T13:56:46.021Z,5.47
2019-02-26T13:59:19.439Z,5.33
2019-02-26T14:01:52.873Z,6.73
2019-02-26T14:04:26.677Z,9.53
2019-02-26T14:07:00.176Z,6.23
2019-02-26T14:09:33.611Z,5.13
2019-02-26T14:12:07.044Z,7.00
2019-02-26T14:14:40.464Z,7.43
2019-02-26T14:17:13.913Z,8.10
2019-02-26T14:19:47.332Z,4.20
2019-02-26T14:22:20.772Z,5.43
2019-02-26T14:24:54.211Z,10.43
2019-02-26T14:27:27.641Z,7.23
2019-02-26T14:30:01.089Z,6.80
2019-02-26T14:32:35.032Z,4.30
2019-02-26T14:35:10.988Z,7.10
2019-02-26T14:37:44.420Z,9.83
2019-02-26T14:40:19.100Z,6.03
2019-02-26T14:42:52.528Z,5.03
2019-02-26T14:45:27.197Z,10.43
2019-02-26T14:48:00.628Z,6.90
2019-02-26T14:50:34.558Z,9.73
2019-02-26T14:53:07.984Z,9.17
2019-02-26T14:55:41.409Z,5.67
2019-02-26T14:58:14.844Z,7.20
2019-02-26T15:00:57.185Z,9.00
2019-02-26T15:03:23.440Z,7.33
2019-02-26T15:05:56.861Z,6.43
2019-02-26T15:08:30.575Z,5.73
2019-02-26T15:11:04.008Z,5.60
2019-02-26T15:13:37.441Z,8.80
2019-02-26T15:16:10.857Z,5.10
2019-02-26T15:18:44.296Z,6.60
2019-02-26T15:21:17.740Z,10.83
2019-02-26T15:23:51.172Z,10.27
2019-02-26T15:26:24.590Z,8.50
2019-02-26T15:28:58.032Z,8.93
2019-02-26T15:31:31.619Z,8.63
2019-02-26T15:34:05.804Z,13.73
2019-02-26T15:36:39.744Z,6.77
2019-02-26T15:39:13.193Z,13.87
2019-02-26T15:41:48.203Z,13.90
2019-02-26T15:44:21.785Z,13.53
2019-02-26T15:46:55.204Z,16.00
2019-02-26T15:49:28.665Z,11.63
2019-02-26T15:52:02.152Z,8.97
2019-02-26T15:54:35.623Z,14.60
2019-02-26T15:57:09.122Z,22.43
2019-02-26T15:59:42.633Z,12.23
2019-02-26T16:02:16.072Z,19.27
2019-02-26T16:04:49.894Z,13.50
2019-02-26T16:10:44.700Z,6.93
2019-02-26T16:13:18.174Z,13.43
2019-02-26T16:15:51.613Z,10.83
2019-02-26T16:18:25.040Z,15.60
2019-02-26T16:20:58.489Z,16.37
2019-02-26T16:23:31.919Z,12.57
2019-02-26T16:26:05.622Z,9.70
2019-02-26T16:28:40.501Z,9.77
2019-02-26T16:31:13.944Z,13.57
2019-02-26T16:33:47.446Z,19.70
2019-02-26T16:36:21.265Z,19.03
2019-02-26T16:38:54.693Z,12.30
2019-02-26T16:41:28.132Z,16.07
2019-02-26T16:44:01.561Z,22.80
2019-02-26T16:46:35.484Z,18.63
2019-02-26T16:49:08.916Z,21.13
2019-02-26T16:51:42.361Z,17.97
2019-02-26T16:54:15.788Z,16.40
2019-02-26T16:56:49.234Z,15.33
2019-02-26T16:59:22.725Z,15.13
2019-02-26T17:01:56.160Z,18.27
2019-02-26T17:04:30.894Z,18.60
2019-02-26T17:07:04.638Z,12.10
2019-02-26T17:09:38.325Z,13.17
2019-02-26T17:12:11.920Z,14.83
2019-02-26T17:14:45.438Z,15.60
2019-02-26T17:17:18.937Z,14.80
2019-02-26T17:19:52.383Z,12.80
2019-02-26T17:22:25.836Z,22.20
2019-02-26T17:24:59.748Z,19.43
2019-02-26T17:27:33.186Z,23.20
2019-02-26T17:30:09.920Z,23.63
2019-02-26T17:32:43.432Z,22.97
2019-02-26T17:35:17.196Z,13.10
2019-02-26T17:37:50.648Z,18.13
2019-02-26T17:40:25.509Z,15.40
2019-02-26T17:42:58.956Z,21.00
2019-02-26T17:45:37.375Z,21.00
2019-02-26T17:48:11.308Z,25.13
2019-02-26T17:50:45.864Z,24.63
2019-02-26T17:53:20.061Z,21.50
2019-02-26T17:55:53.496Z,26.07
2019-02-26T17:58:26.941Z,21.50
2019-02-26T18:01:00.372Z,23.00
2019-02-26T18:03:33.800Z,22.80
2019-02-26T18:06:07.252Z,19.20
2019-02-26T18:08:40.688Z,23.93
2019-02-26T18:11:14.156Z,17.17
2019-02-26T18:13:47.580Z,16.40
2019-02-26T18:16:21.049Z,18.23
2019-02-26T18:18:54.480Z,18.57
2019-02-26T18:21:27.954Z,24.53
2019-02-26T18:24:01.377Z,16.20
2019-02-26T18:26:34.832Z,20.13
2019-02-26T18:29:08.256Z,20.97
2019-02-26T18:31:41.700Z,24.50
2019-02-26T18:34:15.133Z,21.10
2019-02-26T18:36:48.608Z,16.23
2019-02-26T18:39:22.604Z,15.43
2019-02-26T18:41:56.685Z,21.50
2019-02-26T18:44:30.115Z,25.87
2019-02-26T18:47:04.872Z,20.53
2019-02-26T18:49:39.280Z,20.73
2019-02-26T18:52:12.717Z,19.07
2019-02-26T18:54:46.144Z,27.10
2019-02-26T18:57:19.628Z,19.90
2019-02-26T18:59:53.718Z,19.33
2019-02-26T19:02:27.920Z,18.67
2019-02-26T19:05:01.361Z,21.00
2019-02-26T19:07:34.917Z,26.97
2019-02-26T19:10:17.479Z,21.70
2019-02-26T19:12:49.672Z,22.70
2019-02-26T19:15:28.106Z,21.87
2019-02-26T19:18:04.219Z,28.10
2019-02-26T19:20:39.100Z,27.90
2019-02-26T19:23:12.831Z,23.40
2019-02-26T19:25:46.317Z,20.33
2019-02-26T19:28:19.932Z,16.70
2019-02-26T19:30:53.356Z,27.23
2019-02-26T19:33:26.801Z,25.97
2019-02-26T19:36:00.263Z,25.43
2019-02-26T19:38:33.689Z,17.97
2019-02-26T19:41:12.433Z,24.47
2019-02-26T19:43:45.358Z,18.97
2019-02-26T19:46:18.787Z,20.33
2019-02-26T19:48:52.222Z,20.20
2019-02-26T19:51:25.657Z,21.87
2019-02-26T19:53:59.160Z,21.73
2019-02-26T19:56:32.578Z,22.10
2019-02-26T19:59:06.483Z,20.73
2019-02-26T20:01:39.905Z,21.77
2019-02-26T20:04:13.336Z,20.63
2019-02-26T20:06:46.768Z,21.30
2019-02-26T20:09:20.779Z,17.87
2019-02-26T20:11:56.191Z,26.80
2019-02-26T20:14:29.354Z,16.90
2019-02-26T20:17:13.664Z,19.20
2019-02-26T20:19:37.947Z,18.40
2019-02-26T20:22:11.373Z,26.67
2019-02-26T20:24:44.813Z,30.50
2019-02-26T20:27:21.600Z,20.47
2019-02-26T20:29:53.400Z,39.27
2019-02-26T20:32:30.916Z,32.07
2019-02-26T20:35:02.000Z,28.53
2019-02-26T20:37:35.425Z,23.57
2019-02-26T20:40:17.629Z,27.17
2019-02-26T20:42:51.056Z,19.30
2019-02-26T20:45:24.487Z,18.40
2019-02-26T20:47:57.908Z,23.17
2019-02-26T20:50:31.357Z,20.57
2019-02-26T20:53:06.032Z,22.30
2019-02-26T20:55:39.982Z,22.20
2019-02-26T20:58:13.389Z,20.50
2019-02-26T21:00:48.242Z,56.80
2019-02-26T21:03:21.843Z,61.30
2019-02-26T21:05:56.151Z,52.57
2019-02-26T21:08:30.924Z,51.53
2019-02-26T21:11:05.174Z,36.10
2019-02-26T21:13:38.597Z,32.07
2019-02-26T21:16:12.033Z,37.97
2019-02-26T21:18:45.462Z,23.00
2019-02-26T21:21:18.976Z,24.20
2019-02-26T21:23:52.396Z,23.60
2019-02-26T21:26:25.835Z,21.17
2019-02-26T21:28:59.252Z,26.30
2019-02-26T21:31:32.696Z,21.70
2019-02-26T21:34:06.143Z,17.83
2019-02-26T21:36:39.669Z,16.47
2019-02-26T21:39:13.089Z,24.93
2019-02-26T21:41:46.605Z,19.03
2019-02-26T21:44:20.066Z,16.77
2019-02-26T21:46:53.732Z,22.13
2019-02-26T21:49:28.693Z,13.60
2019-02-26T21:52:02.132Z,17.73
2019-02-26T21:54:35.545Z,17.50
2019-02-26T21:57:08.984Z,17.03
2019-02-26T21:59:49.852Z,21.97
2019-02-26T22:02:18.875Z,13.77
2019-02-26T22:04:52.877Z,20.70
2019-02-26T22:07:26.316Z,19.20
2019-02-26T22:09:59.749Z,21.90
2019-02-26T22:12:33.182Z,20.90
2019-02-26T22:15:10.887Z,16.73
2019-02-26T22:17:44.658Z,17.23
2019-02-26T22:20:26.610Z,19.17
2019-02-26T22:22:54.474Z,20.77
2019-02-26T22:25:29.256Z,22.53
2019-02-26T22:28:03.003Z,17.13
2019-02-26T22:30:36.425Z,17.93
2019-02-26T22:33:09.863Z,14.57
2019-02-26T22:35:43.286Z,16.33
2019-02-26T22:38:16.727Z,16.73
2019-02-26T22:40:50.154Z,20.37
2019-02-26T22:43:23.585Z,14.40
2019-02-26T22:46:00.726Z,14.30
2019-02-26T22:48:32.168Z,14.43
2019-02-26T22:51:05.597Z,15.07
2019-02-26T22:53:39.040Z,13.00
2019-02-26T22:56:12.460Z,16.50
2019-02-26T22:58:45.907Z,15.10
2019-02-26T23:01:30.283Z,16.60
2019-02-26T23:03:58.652Z,14.37
2019-02-26T23:06:32.464Z,14.33
2019-02-26T23:09:08.298Z,16.67
2019-02-26T23:11:42.182Z,21.63
2019-02-26T23:14:15.938Z,15.20
2019-02-26T23:16:51.883Z,16.10
2019-02-26T23:19:24.914Z,13.83
2019-02-26T23:21:58.415Z,17.83
2019-02-26T23:24:32.028Z,20.47
2019-02-26T23:27:06.194Z,18.10
2019-02-26T23:29:42.282Z,18.57
2019-02-26T23:32:16.160Z,19.50
2019-02-26T23:35:03.642Z,21.07
2019-02-26T23:37:37.132Z,18.10
2019-02-26T23:40:12.299Z,18.10
2019-02-26T23:42:45.779Z,17.67
2019-02-26T23:45:19.219Z,17.37
2019-02-26T23:47:52.639Z,17.57
2019-02-26T23:50:26.079Z,16.17
2019-02-26T23:53:01.104Z,18.30
2019-02-26T23:55:34.727Z,14.53
2019-02-26T23:58:08.143Z,16.50
